Time;durP1;ratioP1;P1;durP2;ratioP2;P2;SDS_P1;SDS_P2;PMS_P1;PMS_P2;Temp;Humidity;BMP_temperature;BMP_pressure;BME280_temperature;BME280_humidity;BME280_pressure;Samples;Min_cycle;Max_cycle;Signal;HPM_P1;HPM_P2
2021/08/28 00:01:02;;;;;;;2.47;2.28;;;16.50;71.30;;;;;;5000265;28;20116;-63
2021/08/28 00:03:28;;;;;;;2.90;2.47;;;16.40;71.20;;;;;;5000317;28;20042;-64
2021/08/28 00:05:54;;;;;;;2.60;2.40;;;16.40;71.30;;;;;;4997945;28;20038;-63
2021/08/28 00:08:20;;;;;;;3.42;2.50;;;16.40;71.40;;;;;;4998148;28;20073;-63
2021/08/28 00:10:46;;;;;;;2.30;2.08;;;16.40;71.40;;;;;;5001208;28;20072;-64
2021/08/28 00:13:13;;;;;;;3.75;2.40;;;16.40;71.40;;;;;;4998242;28;20402;-63
2021/08/28 00:15:39;;;;;;;2.20;2.00;;;16.40;71.20;;;;;;4997449;28;20034;-63
2021/08/28 00:18:05;;;;;;;2.45;2.17;;;16.50;71.10;;;;;;5014907;28;20034;-64
2021/08/28 00:20:33;;;;;;;2.53;2.30;;;16.40;71.20;;;;;;4997151;28;20048;-64
2021/08/28 00:23:02;;;;;;;2.20;2.00;;;16.40;71.10;;;;;;4993337;28;20518;-63
2021/08/28 00:25:27;;;;;;;3.10;2.17;;;16.40;72.20;;;;;;4999902;28;20519;-63
2021/08/28 00:27:53;;;;;;;2.40;2.13;;;16.40;71.20;;;;;;4999196;28;20046;-63
2021/08/28 00:30:19;;;;;;;2.17;1.98;;;16.40;71.40;;;;;;5001801;28;20033;-64
2021/08/28 00:32:44;;;;;;;2.33;2.13;;;16.40;71.60;;;;;;5012775;28;20041;-63
2021/08/28 00:35:10;;;;;;;1.98;1.88;;;16.40;71.60;;;;;;4995370;28;20073;-64
2021/08/28 00:37:36;;;;;;;3.00;1.98;;;16.40;71.80;;;;;;4997923;28;20037;-64
2021/08/28 00:40:02;;;;;;;2.38;2.08;;;16.40;71.60;;;;;;5002080;28;20109;-62
2021/08/28 00:42:28;;;;;;;1.83;1.73;;;16.30;71.80;;;;;;4988228;28;20505;-63
2021/08/28 00:44:54;;;;;;;2.80;1.83;;;16.30;72.00;;;;;;5002070;28;20037;-63
2021/08/28 00:47:20;;;;;;;2.33;2.20;;;16.40;72.10;;;;;;5002320;28;20061;-63
2021/08/28 00:49:49;;;;;;;3.70;2.10;;;16.40;71.90;;;;;;5000811;28;20536;-63
2021/08/28 00:52:16;;;;;;;2.60;2.28;;;16.40;72.10;;;;;;4996540;28;20040;-63
2021/08/28 00:54:42;;;;;;;2.78;2.05;;;16.40;72.10;;;;;;5004602;28;20567;-64
2021/08/28 00:57:09;;;;;;;2.45;1.92;;;16.40;72.10;;;;;;5006102;28;20030;-63
2021/08/28 00:59:35;;;;;;;1.90;1.80;;;16.40;72.00;;;;;;4996977;28;20046;-63
2021/08/28 01:02:02;;;;;;;2.30;2.10;;;16.40;72.10;;;;;;4992042;28;20056;-62
2021/08/28 01:04:55;;;;;;;3.03;2.20;;;16.40;72.10;;;;;;5003016;28;20397;-63
2021/08/28 01:07:57;;;;;;;2.17;1.77;;;16.40;72.70;;;;;;4994404;28;20583;-62
2021/08/28 01:10:29;;;;;;;2.20;1.95;;;16.40;72.80;;;;;;4999941;28;20089;-64
2021/08/28 01:12:59;;;;;;;3.67;2.03;;;16.40;72.10;;;;;;5000566;28;20038;-63
2021/08/28 01:15:26;;;;;;;3.17;2.20;;;16.40;72.30;;;;;;5002531;28;20038;-63
2021/08/28 01:17:53;;;;;;;2.47;2.28;;;16.40;72.20;;;;;;5003164;28;20031;-63
2021/08/28 01:20:23;;;;;;;2.85;2.60;;;16.40;72.40;;;;;;4999877;28;20719;-63
2021/08/28 01:22:50;;;;;;;3.30;2.20;;;16.40;72.60;;;;;;4999928;28;20553;-64
2021/08/28 01:25:16;;;;;;;2.22;2.08;;;16.40;72.30;;;;;;5002479;28;20109;-64
2021/08/28 01:27:55;;;;;;;2.35;2.15;;;16.40;72.40;;;;;;5003461;28;20057;-63
2021/08/28 01:30:21;;;;;;;2.55;2.30;;;16.40;72.70;;;;;;5000573;28;20038;-64
2021/08/28 01:32:47;;;;;;;2.65;2.45;;;16.40;72.50;;;;;;5002014;28;20084;-63
2021/08/28 01:35:14;;;;;;;2.45;2.20;;;16.30;72.50;;;;;;5000248;28;20038;-64
2021/08/28 01:37:41;;;;;;;2.70;2.50;;;16.30;72.40;;;;;;4996895;28;20053;-63
2021/08/28 01:40:07;;;;;;;2.72;2.50;;;16.30;72.40;;;;;;4999679;28;20022;-63
2021/08/28 01:42:35;;;;;;;2.92;2.28;;;16.30;72.60;;;;;;5001931;28;20042;-63
2021/08/28 01:45:02;;;;;;;2.60;2.30;;;16.30;72.60;;;;;;5000650;28;20209;-63
2021/08/28 01:47:29;;;;;;;2.40;2.17;;;16.30;72.60;;;;;;5001248;28;20045;-64
2021/08/28 01:49:55;;;;;;;2.97;2.30;;;16.30;72.60;;;;;;4999914;28;20125;-63
2021/08/28 01:52:21;;;;;;;3.83;2.00;;;16.30;72.50;;;;;;5013451;28;20034;-63
2021/08/28 01:54:50;;;;;;;2.75;2.08;;;16.30;72.50;;;;;;4998298;28;20114;-63
2021/08/28 01:57:16;;;;;;;2.53;2.30;;;16.30;72.50;;;;;;5000705;28;20100;-62
2021/08/28 01:59:42;;;;;;;1.92;1.83;;;16.30;72.30;;;;;;5000038;28;20038;-63
2021/08/28 02:02:08;;;;;;;2.50;2.30;;;16.30;72.40;;;;;;5002020;28;20042;-64
2021/08/28 02:04:35;;;;;;;2.05;1.95;;;16.30;72.50;;;;;;4998990;28;20030;-63
2021/08/28 02:07:11;;;;;;;2.00;1.80;;;16.20;72.50;;;;;;5000597;28;20046;-63
2021/08/28 02:09:44;;;;;;;2.30;2.10;;;16.20;72.60;;;;;;4994741;28;20442;-64
2021/08/28 02:12:19;;;;;;;3.00;2.20;;;16.20;72.50;;;;;;4997019;28;20034;-63
2021/08/28 02:14:55;;;;;;;2.90;2.15;;;16.20;72.80;;;;;;5003157;28;20072;-63
2021/08/28 02:17:22;;;;;;;3.40;2.28;;;16.20;72.70;;;;;;5001337;28;20042;-63
2021/08/28 02:19:48;;;;;;;2.70;2.03;;;16.20;72.50;;;;;;5002140;28;20041;-63
2021/08/28 02:22:23;;;;;;;2.13;1.95;;;16.10;72.50;;;;;;5000674;28;20053;-64
2021/08/28 02:24:55;;;;;;;2.53;2.33;;;16.10;72.80;;;;;;4996217;28;20037;-63
2021/08/28 02:27:29;;;;;;;3.55;1.95;;;16.10;72.80;;;;;;5001549;28;20049;-63
2021/08/28 02:30:03;;;;;;;3.28;2.13;;;16.00;72.90;;;;;;4998022;28;20517;-63
2021/08/28 02:32:31;;;;;;;2.78;2.00;;;16.00;73.00;;;;;;4999873;28;20125;-63
2021/08/28 02:34:58;;;;;;;2.53;2.20;;;16.00;73.00;;;;;;4997855;28;20505;-63
2021/08/28 02:37:24;;;;;;;2.75;2.00;;;16.00;73.10;;;;;;5002092;28;20033;-63
2021/08/28 02:39:50;;;;;;;2.05;1.85;;;15.90;73.20;;;;;;4999845;28;20548;-63
2021/08/28 02:42:17;;;;;;;2.88;2.30;;;15.90;73.20;;;;;;5000713;28;20042;-63
2021/08/28 02:44:45;;;;;;;2.45;2.25;;;15.90;73.20;;;;;;5001661;28;20640;-63
2021/08/28 02:47:13;;;;;;;2.50;1.98;;;15.90;73.30;;;;;;4999615;28;20130;-63
2021/08/28 02:49:40;;;;;;;2.72;2.53;;;15.90;73.30;;;;;;5002050;28;20065;-63
2021/08/28 02:52:07;;;;;;;2.75;2.50;;;15.90;73.30;;;;;;4997080;28;20036;-63
2021/08/28 02:54:34;;;;;;;2.55;2.33;;;15.90;73.50;;;;;;4996405;28;20129;-63
2021/08/28 02:57:00;;;;;;;3.58;2.30;;;15.90;73.50;;;;;;4998866;28;20041;-63
2021/08/28 02:59:27;;;;;;;2.97;2.28;;;15.90;73.50;;;;;;4997627;28;20048;-63
2021/08/28 03:01:53;;;;;;;2.78;2.40;;;15.90;73.50;;;;;;5011802;28;20034;-63
2021/08/28 03:04:22;;;;;;;2.83;2.53;;;15.90;73.60;;;;;;5001453;28;20030;-63
2021/08/28 03:06:49;;;;;;;2.90;2.35;;;15.90;73.70;;;;;;4996572;28;20561;-63
2021/08/28 03:09:18;;;;;;;2.75;2.50;;;15.90;73.70;;;;;;5002552;28;20040;-63
2021/08/28 03:11:45;;;;;;;2.58;2.38;;;15.80;73.90;;;;;;4989692;28;20406;-63
2021/08/28 03:14:12;;;;;;;2.60;2.40;;;15.80;73.80;;;;;;4995225;28;20025;-63
2021/08/28 03:16:41;;;;;;;2.55;2.35;;;15.80;73.90;;;;;;4999286;28;20069;-63
2021/08/28 03:19:08;;;;;;;3.13;2.40;;;15.80;74.10;;;;;;5001526;28;20053;-63
2021/08/28 03:21:37;;;;;;;3.00;2.70;;;15.80;74.20;;;;;;4997624;28;20120;-63
2021/08/28 03:24:03;;;;;;;3.05;2.75;;;15.80;74.20;;;;;;4997818;28;21678;-63
2021/08/28 03:26:30;;;;;;;3.75;2.90;;;15.80;75.00;;;;;;4994627;28;20034;-63
2021/08/28 03:28:58;;;;;;;4.43;2.75;;;15.70;74.20;;;;;;5017616;28;20027;-64
2021/08/28 03:31:25;;;;;;;3.45;2.88;;;15.70;74.50;;;;;;4997501;28;20040;-63
2021/08/28 03:33:57;;;;;;;4.32;2.90;;;15.70;74.50;;;;;;5000431;28;20405;-63
2021/08/28 03:36:23;;;;;;;3.00;2.55;;;15.70;74.50;;;;;;5000249;28;20104;-62
2021/08/28 03:38:49;;;;;;;3.15;2.42;;;15.70;74.30;;;;;;5000059;28;20670;-64
2021/08/28 03:41:16;;;;;;;3.50;2.35;;;15.70;74.40;;;;;;4998391;28;20743;-63
2021/08/28 03:43:44;;;;;;;3.15;2.70;;;15.70;74.60;;;;;;4994020;28;20041;-63
2021/08/28 03:46:10;;;;;;;4.78;2.83;;;15.60;74.60;;;;;;4992569;28;20038;-64
2021/08/28 03:48:38;;;;;;;3.20;2.75;;;15.70;74.70;;;;;;5000552;28;20137;-63
2021/08/28 03:51:04;;;;;;;2.95;2.33;;;15.60;74.70;;;;;;5000724;28;20038;-63
2021/08/28 03:53:29;;;;;;;2.92;2.63;;;15.60;74.70;;;;;;4992847;28;20026;-64
2021/08/28 03:55:58;;;;;;;5.65;3.72;;;15.60;74.70;;;;;;5001997;28;20041;-64
2021/08/28 03:58:24;;;;;;;4.65;3.30;;;15.60;74.80;;;;;;4998716;28;20037;-63
2021/08/28 04:00:50;;;;;;;3.33;2.90;;;15.60;74.80;;;;;;4999192;28;20120;-63
2021/08/28 04:03:17;;;;;;;15.55;7.45;;;15.60;74.90;;;;;;5010444;28;20033;-63
2021/08/28 04:05:42;;;;;;;8.70;5.35;;;15.60;74.80;;;;;;5002251;28;20038;-63
2021/08/28 04:08:08;;;;;;;5.13;3.28;;;15.60;74.90;;;;;;4997236;28;20061;-64
2021/08/28 04:10:34;;;;;;;3.90;2.88;;;15.60;74.90;;;;;;4998266;28;20081;-63
2021/08/28 04:12:59;;;;;;;3.85;3.00;;;15.60;74.80;;;;;;4995191;28;20034;-63
2021/08/28 04:15:25;;;;;;;3.53;2.50;;;15.60;74.90;;;;;;4992584;28;22492;-63
2021/08/28 04:17:50;;;;;;;3.10;2.80;;;15.60;74.90;;;;;;4996759;28;20072;-63
2021/08/28 04:20:16;;;;;;;2.65;2.45;;;15.60;74.90;;;;;;4997912;28;20052;-63
2021/08/28 04:22:42;;;;;;;2.92;2.55;;;15.60;74.90;;;;;;4996818;28;20045;-63
2021/08/28 04:25:09;;;;;;;4.18;2.40;;;15.60;75.10;;;;;;5001983;28;20030;-63
2021/08/28 04:27:35;;;;;;;2.80;2.60;;;15.60;75.10;;;;;;4993799;28;20042;-63
2021/08/28 04:30:00;;;;;;;4.43;2.80;;;15.60;75.10;;;;;;5005337;28;20040;-63
2021/08/28 04:32:26;;;;;;;3.22;2.72;;;15.60;75.10;;;;;;5000960;28;20166;-64
2021/08/28 04:34:52;;;;;;;3.13;2.78;;;15.50;75.00;;;;;;5007231;28;20054;-63
2021/08/28 04:37:17;;;;;;;4.43;2.70;;;15.50;75.10;;;;;;5003273;28;20056;-63
2021/08/28 04:39:43;;;;;;;3.92;3.08;;;15.50;75.00;;;;;;5001660;28;20044;-64
2021/08/28 04:42:08;;;;;;;3.28;2.58;;;15.50;75.00;;;;;;5002269;28;20041;-63
2021/08/28 04:44:34;;;;;;;3.30;2.97;;;15.50;75.00;;;;;;4999326;28;20041;-63
2021/08/28 04:47:00;;;;;;;4.05;3.08;;;15.50;74.90;;;;;;5001171;28;20422;-63
2021/08/28 04:49:25;;;;;;;2.80;2.60;;;15.50;74.90;;;;;;5001666;28;20038;-63
2021/08/28 04:51:51;;;;;;;3.78;2.97;;;15.50;74.90;;;;;;4996910;28;20030;-63
2021/08/28 04:54:16;;;;;;;2.90;2.70;;;15.50;75.00;;;;;;4996887;28;20463;-63
2021/08/28 04:56:42;;;;;;;3.08;2.78;;;15.40;74.90;;;;;;5000129;28;20547;-62
2021/08/28 04:59:08;;;;;;;3.70;3.28;;;15.40;74.90;;;;;;4997501;28;20432;-63
2021/08/28 05:01:33;;;;;;;3.38;3.08;;;15.40;75.10;;;;;;5004213;28;20037;-63
2021/08/28 05:03:59;;;;;;;3.28;2.95;;;15.40;75.20;;;;;;5002344;28;20506;-63
2021/08/28 05:06:25;;;;;;;3.03;2.72;;;15.40;75.30;;;;;;4999187;28;20060;-63
2021/08/28 05:08:50;;;;;;;3.22;2.92;;;15.40;75.40;;;;;;4997172;28;20405;-64
2021/08/28 05:11:16;;;;;;;4.70;3.10;;;15.30;75.40;;;;;;5000142;28;20034;-64
2021/08/28 05:13:41;;;;;;;4.95;4.43;;;15.30;75.60;;;;;;4999573;28;20042;-63
2021/08/28 05:16:07;;;;;;;4.70;4.30;;;15.30;75.70;;;;;;4999110;28;20030;-63
2021/08/28 05:18:34;;;;;;;8.40;6.05;;;15.40;75.80;;;;;;5001806;28;20032;-63
2021/08/28 05:21:00;;;;;;;4.35;3.95;;;15.40;75.80;;;;;;5004920;28;20075;-63
2021/08/28 05:23:25;;;;;;;3.40;3.10;;;15.40;75.90;;;;;;4997352;28;20480;-63
2021/08/28 05:25:51;;;;;;;6.10;4.40;;;15.40;75.80;;;;;;4999516;28;20026;-63
2021/08/28 05:28:16;;;;;;;4.30;3.90;;;15.40;75.80;;;;;;5000821;28;20056;-63
2021/08/28 05:30:42;;;;;;;3.97;3.17;;;15.50;75.90;;;;;;4997809;28;20042;-63
2021/08/28 05:33:08;;;;;;;3.40;3.10;;;15.50;75.90;;;;;;4993994;28;20087;-65
2021/08/28 05:35:34;;;;;;;3.58;3.28;;;15.50;75.80;;;;;;4996038;28;20041;-65
2021/08/28 05:38:00;;;;;;;3.70;3.03;;;15.60;75.70;;;;;;4995609;28;20038;-65
2021/08/28 05:40:25;;;;;;;3.40;3.10;;;15.60;75.70;;;;;;4992753;28;20414;-65
2021/08/28 05:42:51;;;;;;;5.32;3.58;;;15.60;75.70;;;;;;4998436;28;20116;-65
2021/08/28 05:45:16;;;;;;;3.70;3.40;;;15.70;75.60;;;;;;4991971;28;20030;-65
2021/08/28 05:47:42;;;;;;;3.08;2.78;;;15.70;75.40;;;;;;4997818;28;20062;-65
2021/08/28 05:50:08;;;;;;;3.45;3.15;;;15.70;75.50;;;;;;4991564;28;20030;-65
2021/08/28 05:52:34;;;;;;;4.20;3.80;;;15.70;75.40;;;;;;4990476;28;20095;-65
2021/08/28 05:54:59;;;;;;;3.90;3.50;;;15.70;75.50;;;;;;4993447;28;20034;-65
2021/08/28 05:57:25;;;;;;;4.05;3.25;;;15.70;75.50;;;;;;4993251;28;20061;-65
2021/08/28 05:59:51;;;;;;;3.70;3.22;;;15.70;75.40;;;;;;4983262;28;20187;-65
2021/08/28 06:02:16;;;;;;;5.07;3.10;;;15.70;75.30;;;;;;4976994;28;20049;-66
2021/08/28 06:04:42;;;;;;;3.35;2.95;;;15.70;75.30;;;;;;4975916;28;20133;-65
2021/08/28 06:07:09;;;;;;;4.82;3.35;;;15.70;75.30;;;;;;4981904;28;20047;-66
2021/08/28 06:09:35;;;;;;;3.63;3.33;;;15.70;75.40;;;;;;4984678;28;20066;-66
2021/08/28 06:12:00;;;;;;;2.97;2.78;;;15.70;75.60;;;;;;4978853;28;20129;-64
2021/08/28 06:14:26;;;;;;;3.58;3.20;;;15.80;75.40;;;;;;4985217;28;20038;-65
2021/08/28 06:16:52;;;;;;;3.58;3.28;;;15.70;75.50;;;;;;4984535;28;20336;-65
2021/08/28 06:19:17;;;;;;;3.40;3.08;;;15.70;75.70;;;;;;4979331;28;20066;-65
2021/08/28 06:21:43;;;;;;;3.10;2.90;;;15.80;75.80;;;;;;4980024;28;20130;-65
2021/08/28 06:24:09;;;;;;;3.38;3.08;;;15.80;75.80;;;;;;4983250;28;20514;-65
2021/08/28 06:26:34;;;;;;;3.92;3.20;;;15.80;75.50;;;;;;4982122;28;20072;-65
2021/08/28 06:29:00;;;;;;;3.78;3.22;;;15.80;75.40;;;;;;4988681;28;20030;-65
2021/08/28 06:31:26;;;;;;;5.03;3.42;;;15.80;75.50;;;;;;4981573;28;20045;-65
2021/08/28 06:33:51;;;;;;;5.50;3.35;;;15.70;75.80;;;;;;4982931;28;20034;-65
2021/08/28 06:36:17;;;;;;;4.32;3.58;;;15.80;75.80;;;;;;4981489;28;20037;-65
2021/08/28 06:38:43;;;;;;;5.10;3.67;;;15.70;75.80;;;;;;4981697;28;20045;-65
2021/08/28 06:41:08;;;;;;;3.72;3.38;;;15.70;75.90;;;;;;4982025;28;20096;-66
2021/08/28 06:43:34;;;;;;;4.00;3.60;;;15.80;75.80;;;;;;4981088;28;20034;-65
2021/08/28 06:46:00;;;;;;;4.03;3.65;;;15.70;75.80;;;;;;4987209;28;20041;-65
2021/08/28 06:48:25;;;;;;;3.60;3.30;;;15.70;76.00;;;;;;4980431;28;20069;-65
2021/08/28 06:50:51;;;;;;;6.40;3.58;;;15.70;76.00;;;;;;4979274;28;20042;-65
2021/08/28 06:53:16;;;;;;;4.07;3.72;;;15.80;76.10;;;;;;4985606;28;20030;-65
2021/08/28 06:55:43;;;;;;;3.72;3.42;;;15.80;76.30;;;;;;4980878;28;20030;-65
2021/08/28 06:58:08;;;;;;;4.18;3.83;;;15.80;76.30;;;;;;4983412;28;20503;-66
2021/08/28 07:00:34;;;;;;;3.97;3.63;;;15.80;76.50;;;;;;4991581;28;20524;-66
2021/08/28 07:03:00;;;;;;;3.88;3.47;;;15.80;76.50;;;;;;4980221;28;20046;-65
2021/08/28 07:05:25;;;;;;;3.90;3.55;;;15.80;77.70;;;;;;4982908;28;20957;-65
2021/08/28 07:07:51;;;;;;;3.83;3.53;;;15.80;77.00;;;;;;4990891;28;20078;-65
2021/08/28 07:10:17;;;;;;;3.90;3.60;;;15.80;77.00;;;;;;4994063;28;20053;-65
2021/08/28 07:12:43;;;;;;;3.78;3.47;;;15.80;77.00;;;;;;4995722;28;20036;-65
2021/08/28 07:15:10;;;;;;;3.88;3.58;;;15.80;77.20;;;;;;4996508;28;20041;-66
2021/08/28 07:17:36;;;;;;;4.47;4.05;;;15.80;76.90;;;;;;4999114;28;20042;-65
2021/08/28 07:20:03;;;;;;;4.22;3.85;;;15.90;77.30;;;;;;4989232;28;20665;-65
2021/08/28 07:22:29;;;;;;;4.28;3.97;;;15.90;77.40;;;;;;4991840;28;20042;-65
2021/08/28 07:24:55;;;;;;;4.75;3.97;;;15.90;77.20;;;;;;4996762;28;20087;-65
2021/08/28 07:27:23;;;;;;;10.30;3.88;;;15.90;77.30;;;;;;5001815;28;20050;-66
2021/08/28 07:29:51;;;;;;;4.85;4.35;;;15.90;77.50;;;;;;4997319;28;20060;-66
2021/08/28 07:32:18;;;;;;;4.65;4.15;;;15.90;77.90;;;;;;4999753;28;20038;-65
2021/08/28 07:34:45;;;;;;;4.82;4.40;;;15.90;78.00;;;;;;4997767;28;20042;-65
2021/08/28 07:37:11;;;;;;;4.53;3.75;;;15.80;78.00;;;;;;4994487;28;20030;-66
2021/08/28 07:39:37;;;;;;;3.60;3.30;;;15.80;78.30;;;;;;4993733;28;20464;-66
2021/08/28 07:42:03;;;;;;;3.85;3.30;;;15.80;78.30;;;;;;4996093;28;20117;-66
2021/08/28 07:44:29;;;;;;;3.60;3.30;;;15.80;78.30;;;;;;4993613;28;20064;-65
2021/08/28 07:46:55;;;;;;;3.70;3.33;;;15.70;78.10;;;;;;4996732;28;20117;-65
2021/08/28 07:49:21;;;;;;;3.92;3.63;;;15.70;78.10;;;;;;4991476;28;20037;-66
2021/08/28 07:51:46;;;;;;;3.97;3.35;;;15.70;78.60;;;;;;4996326;28;20397;-65
2021/08/28 07:54:12;;;;;;;4.38;4.07;;;15.60;78.30;;;;;;4996696;28;20523;-65
2021/08/28 07:56:38;;;;;;;3.20;3.00;;;15.60;78.70;;;;;;4988805;28;20022;-65
2021/08/28 07:59:04;;;;;;;3.75;3.47;;;15.60;78.70;;;;;;4994721;28;20374;-66
2021/08/28 08:01:29;;;;;;;3.58;3.28;;;15.60;79.00;;;;;;4998092;28;20105;-65
2021/08/28 08:03:55;;;;;;;3.22;3.00;;;15.60;78.90;;;;;;5001656;28;20050;-66
2021/08/28 08:06:21;;;;;;;3.35;3.05;;;15.60;78.80;;;;;;5001839;28;20041;-65
2021/08/28 08:08:46;;;;;;;3.47;3.17;;;15.60;79.00;;;;;;5002683;28;20025;-65
2021/08/28 08:11:16;;;;;;;3.53;3.10;;;15.60;78.90;;;;;;5001312;28;20080;-65
2021/08/28 08:13:45;;;;;;;3.22;2.88;;;15.60;78.90;;;;;;5000537;28;20524;-66
2021/08/28 08:16:11;;;;;;;3.10;2.90;;;15.60;78.70;;;;;;4996482;28;20031;-65
2021/08/28 08:18:38;;;;;;;3.00;2.80;;;15.70;78.50;;;;;;5002560;28;20041;-65
2021/08/28 08:21:03;;;;;;;3.13;2.72;;;15.70;78.50;;;;;;5009138;28;20030;-65
2021/08/28 08:23:29;;;;;;;3.20;3.00;;;15.80;78.70;;;;;;5005336;28;20030;-65
2021/08/28 08:25:54;;;;;;;2.95;2.75;;;15.80;79.80;;;;;;5005299;28;20026;-66
2021/08/28 08:28:20;;;;;;;3.42;3.22;;;15.90;79.10;;;;;;5004698;28;20049;-65
2021/08/28 08:30:46;;;;;;;3.97;3.60;;;15.90;79.10;;;;;;4995915;28;20502;-66
2021/08/28 08:33:11;;;;;;;3.28;3.08;;;16.00;79.30;;;;;;5003238;28;20053;-66
2021/08/28 08:35:37;;;;;;;3.28;2.97;;;16.00;79.00;;;;;;5004906;28;20108;-66
2021/08/28 08:38:03;;;;;;;3.55;3.25;;;16.10;79.10;;;;;;5005593;28;20033;-66
2021/08/28 08:40:30;;;;;;;3.00;2.80;;;16.10;79.10;;;;;;5008460;28;20030;-66
2021/08/28 08:42:58;;;;;;;3.15;2.95;;;16.20;80.00;;;;;;5005627;28;20056;-66
2021/08/28 08:45:25;;;;;;;3.35;3.05;;;16.20;78.90;;;;;;5004628;28;20515;-66
2021/08/28 08:47:52;;;;;;;3.08;2.78;;;16.30;78.70;;;;;;5001760;28;20121;-66
2021/08/28 08:50:19;;;;;;;2.97;2.78;;;16.30;78.20;;;;;;4998083;28;20031;-66
2021/08/28 08:52:48;;;;;;;2.90;2.70;;;16.30;78.20;;;;;;5005209;28;20033;-66
2021/08/28 08:55:15;;;;;;;2.75;2.55;;;16.40;78.30;;;;;;5005147;28;20029;-66
2021/08/28 08:57:41;;;;;;;2.85;2.65;;;16.40;78.20;;;;;;5002694;28;20049;-65
2021/08/28 09:00:08;;;;;;;2.67;2.47;;;16.40;78.10;;;;;;5001114;28;20030;-65
2021/08/28 09:02:34;;;;;;;2.47;2.28;;;16.40;78.20;;;;;;5002059;28;20030;-65
2021/08/28 09:05:00;;;;;;;2.67;2.47;;;16.30;77.90;;;;;;5002322;28;20037;-66
2021/08/28 09:07:25;;;;;;;3.45;3.15;;;16.40;77.90;;;;;;5005679;28;20042;-66
2021/08/28 09:09:51;;;;;;;1.90;1.75;;;16.30;78.00;;;;;;5003141;28;20045;-66
2021/08/28 09:12:17;;;;;;;1.85;1.75;;;16.30;77.50;;;;;;5003592;28;20042;-65
2021/08/28 09:14:43;;;;;;;1.20;1.10;;;16.20;77.10;;;;;;5004576;28;20033;-65
2021/08/28 09:17:18;;;;;;;1.52;1.42;;;16.20;76.80;;;;;;5007349;28;20528;-65
2021/08/28 09:19:45;;;;;;;2.15;1.90;;;16.10;77.20;;;;;;5006478;28;20433;-65
2021/08/28 09:22:31;;;;;;;2.17;1.75;;;16.10;77.50;;;;;;5005453;28;20418;-66
2021/08/28 09:25:06;;;;;;;2.15;2.03;;;16.00;78.10;;;;;;5006941;28;20034;-65
2021/08/28 09:27:40;;;;;;;2.13;2.00;;;16.00;78.10;;;;;;5007078;28;20117;-66
2021/08/28 09:30:19;;;;;;;2.23;2.07;;;16.00;78.20;;;;;;5008197;28;20409;-66
2021/08/28 09:33:03;;;;;;;2.45;2.28;;;15.90;79.10;;;;;;5004010;28;20038;-66
2021/08/28 09:35:31;;;;;;;2.08;1.98;;;15.90;79.80;;;;;;5006507;28;20053;-65
2021/08/28 09:37:59;;;;;;;2.20;2.10;;;16.00;79.20;;;;;;5021093;28;20066;-65
2021/08/28 09:40:27;;;;;;;2.30;1.70;;;16.00;80.00;;;;;;5007542;28;20026;-63
2021/08/28 09:43:18;;;;;;;1.35;1.25;;;16.00;79.10;;;;;;5003915;28;20034;-66
2021/08/28 09:45:46;;;;;;;2.17;2.00;;;16.00;78.20;;;;;;5005310;28;20069;-65
2021/08/28 09:48:14;;;;;;;2.33;2.15;;;16.00;78.70;;;;;;5003886;28;20403;-65
2021/08/28 09:50:44;;;;;;;1.70;1.60;;;16.00;79.40;;;;;;5005307;28;20046;-65
2021/08/28 09:53:18;;;;;;;1.90;1.80;;;16.10;79.40;;;;;;5005421;28;20057;-67
2021/08/28 09:55:44;;;;;;;2.00;1.90;;;16.10;79.10;;;;;;5005070;28;20045;-65
2021/08/28 09:58:11;;;;;;;1.70;1.60;;;16.20;79.30;;;;;;5004292;28;20615;-66
2021/08/28 10:00:44;;;;;;;1.42;1.33;;;16.20;78.70;;;;;;5006394;28;20517;-66
2021/08/28 10:03:11;;;;;;;1.35;1.27;;;16.30;78.20;;;;;;5004320;28;20050;-65
2021/08/28 10:05:39;;;;;;;1.80;1.50;;;16.30;78.20;;;;;;5003143;28;20042;-66
2021/08/28 10:08:07;;;;;;;1.77;1.60;;;16.40;78.10;;;;;;5023847;28;20422;-66
2021/08/28 10:10:35;;;;;;;2.08;1.90;;;16.40;78.00;;;;;;5004956;28;20049;-66
2021/08/28 10:13:02;;;;;;;1.98;1.85;;;16.50;77.70;;;;;;5004324;28;20034;-65
2021/08/28 10:15:29;;;;;;;2.20;2.00;;;16.60;77.60;;;;;;5005277;28;20030;-66
2021/08/28 10:17:57;;;;;;;1.92;1.83;;;16.60;77.20;;;;;;5004485;28;20034;-66
2021/08/28 10:20:24;;;;;;;2.17;2.08;;;16.60;77.00;;;;;;5006212;28;20057;-66
2021/08/28 10:22:53;;;;;;;1.73;1.63;;;16.70;77.50;;;;;;5003113;28;20171;-66
2021/08/28 10:25:23;;;;;;;2.28;2.10;;;16.70;76.30;;;;;;5006912;28;20038;-66
2021/08/28 10:27:50;;;;;;;2.67;2.47;;;16.80;75.60;;;;;;5004560;28;20046;-66
2021/08/28 10:30:18;;;;;;;2.55;2.35;;;16.80;76.20;;;;;;5007303;28;20057;-66
2021/08/28 10:32:44;;;;;;;3.05;2.72;;;16.90;76.50;;;;;;4997835;28;20038;-66
2021/08/28 10:35:12;;;;;;;2.30;2.10;;;17.00;76.40;;;;;;5001493;28;20034;-67
2021/08/28 10:37:38;;;;;;;3.08;2.78;;;17.00;75.80;;;;;;5005884;28;20498;-66
2021/08/28 10:40:29;;;;;;;2.78;2.58;;;17.10;77.00;;;;;;5004683;28;20068;-66
2021/08/28 10:42:57;;;;;;;2.22;2.03;;;17.10;75.80;;;;;;4981409;28;20494;-66
2021/08/28 10:45:28;;;;;;;4.63;1.83;;;17.20;74.80;;;;;;4989466;28;20065;-66
2021/08/28 10:48:05;;;;;;;2.00;1.90;;;17.20;72.30;;;;;;4995656;28;20037;-67
2021/08/28 10:50:38;;;;;;;2.08;1.98;;;17.20;72.10;;;;;;5005681;28;20164;-66
2021/08/28 10:53:05;;;;;;;4.78;2.30;;;17.20;73.80;;;;;;4990642;28;20062;-66
2021/08/28 10:55:38;;;;;;;2.38;2.20;;;17.20;73.90;;;;;;4989608;28;20433;-66
2021/08/28 10:58:18;;;;;;;2.00;1.80;;;17.30;73.20;;;;;;4992684;28;20449;-66
2021/08/28 11:00:55;;;;;;;2.35;2.15;;;17.30;72.60;;;;;;4994553;28;20405;-66
2021/08/28 11:03:29;;;;;;;2.42;2.22;;;17.30;72.10;;;;;;5001557;28;20061;-64
2021/08/28 11:06:13;;;;;;;2.73;2.17;;;17.30;71.80;;;;;;4988363;28;20034;-66
2021/08/28 11:08:54;;;;;;;2.28;2.15;;;17.30;72.30;;;;;;4998369;28;20556;-66
2021/08/28 11:11:29;;;;;;;2.30;2.10;;;17.30;72.80;;;;;;4996552;28;20516;-64
2021/08/28 11:14:10;;;;;;;1.98;1.88;;;17.30;71.60;;;;;;4995926;28;20108;-64
2021/08/28 11:16:44;;;;;;;2.00;1.90;;;17.40;72.20;;;;;;4994391;28;20061;-64
2021/08/28 11:19:32;;;;;;;2.00;1.80;;;17.40;72.80;;;;;;4992268;28;20045;-64
2021/08/28 11:21:58;;;;;;;5.10;1.50;;;17.40;71.50;;;;;;4993316;28;20124;-64
2021/08/28 11:24:25;;;;;;;1.40;1.30;;;17.40;71.50;;;;;;4992011;28;20559;-64
2021/08/28 11:26:54;;;;;;;1.73;1.63;;;17.40;71.70;;;;;;4992345;28;20046;-64
2021/08/28 11:29:23;;;;;;;1.13;0.90;;;17.40;72.30;;;;;;4995095;28;20080;-64
2021/08/28 11:32:12;;;;;;;1.23;0.85;;;17.50;70.70;;;;;;4999774;28;20030;-64
2021/08/28 11:34:43;;;;;;;1.45;0.90;;;17.50;69.10;;;;;;4992482;28;20096;-64
2021/08/28 11:37:23;;;;;;;1.05;1.02;;;17.50;69.80;;;;;;4998912;28;20061;-64
2021/08/28 11:39:50;;;;;;;1.02;0.93;;;17.50;68.90;;;;;;4998659;28;20044;-64
2021/08/28 11:42:16;;;;;;;0.75;0.75;;;17.50;69.10;;;;;;4993401;28;20383;-64
2021/08/28 11:44:50;;;;;;;1.20;0.80;;;17.50;69.10;;;;;;5001613;28;20046;-64
2021/08/28 11:47:16;;;;;;;1.05;0.95;;;17.40;68.90;;;;;;4995653;28;20050;-64
2021/08/28 11:49:43;;;;;;;1.08;1.08;;;17.40;69.80;;;;;;4998364;28;20127;-64
2021/08/28 11:52:09;;;;;;;1.40;1.30;;;17.40;70.50;;;;;;5016224;28;20521;-63
2021/08/28 11:54:35;;;;;;;0.90;0.90;;;17.30;70.70;;;;;;4998463;28;20034;-63
2021/08/28 11:57:01;;;;;;;1.25;1.20;;;17.30;70.60;;;;;;4997965;28;20038;-64
2021/08/28 11:59:39;;;;;;;1.33;1.23;;;17.20;70.90;;;;;;4997224;28;20617;-64
2021/08/28 12:02:05;;;;;;;1.42;1.27;;;17.10;71.60;;;;;;4994883;28;20034;-63
2021/08/28 12:04:35;;;;;;;1.50;1.40;;;17.00;72.10;;;;;;4999377;28;20046;-63
2021/08/28 12:07:02;;;;;;;2.00;1.50;;;16.90;72.90;;;;;;4999276;28;20038;-63
2021/08/28 12:09:29;;;;;;;1.83;1.70;;;16.90;73.10;;;;;;5002745;28;20461;-63
2021/08/28 12:11:56;;;;;;;2.13;1.60;;;16.80;73.20;;;;;;4986644;28;20041;-63
2021/08/28 12:14:26;;;;;;;2.10;1.75;;;16.70;73.50;;;;;;4991039;28;20045;-58
2021/08/28 12:16:53;;;;;;;1.80;1.63;;;16.60;74.20;;;;;;4995024;28;20116;-63
2021/08/28 12:19:21;;;;;;;1.70;1.60;;;16.50;74.30;;;;;;4998020;28;20068;-63
2021/08/28 12:21:49;;;;;;;2.13;1.73;;;16.50;74.90;;;;;;4998575;28;20037;-63
2021/08/28 12:24:17;;;;;;;2.83;1.88;;;16.50;76.00;;;;;;4997855;28;20034;-63
2021/08/28 12:26:46;;;;;;;2.05;1.85;;;16.50;75.60;;;;;;4998645;28;20513;-63
2021/08/28 12:29:24;;;;;;;3.00;2.80;;;16.40;75.50;;;;;;5003070;28;20064;-63
2021/08/28 12:31:54;;;;;;;2.00;1.77;;;16.40;76.50;;;;;;4994665;28;20128;-63
2021/08/28 12:34:21;;;;;;;1.65;1.55;;;16.50;76.10;;;;;;4999954;28;20034;-63
2021/08/28 12:36:48;;;;;;;1.83;1.73;;;16.40;75.90;;;;;;4996848;28;20556;-63
2021/08/28 12:39:14;;;;;;;1.75;1.65;;;16.50;76.30;;;;;;5000930;28;20034;-62
2021/08/28 12:41:40;;;;;;;1.75;1.65;;;16.50;76.70;;;;;;4999443;28;20441;-64
2021/08/28 12:44:07;;;;;;;1.58;1.48;;;16.50;76.80;;;;;;5013617;28;20046;-63
2021/08/28 12:46:34;;;;;;;2.03;1.42;;;16.60;77.20;;;;;;4995341;28;20165;-61
2021/08/28 12:49:11;;;;;;;1.40;1.30;;;16.60;77.00;;;;;;4997536;28;20079;-65
2021/08/28 12:51:36;;;;;;;1.40;1.30;;;16.60;77.20;;;;;;5002574;28;20398;-65